Rachel Borchard — V7AT6 — position and weather

sailwx.info

Track history (hours):
 
Tides and Currents Weather Stations Pressure Air Temp Water Temp Dewpoint Dewpoint Depression Visibility Wind Speed Wind Dir Waves Ship Positions

Rachel Borchard

Last reported at 2017-Sep-21 14:42 UTC. Time now 2017-Sep-22 10:16 UTC.
Position N 36°08' W 007°19'.

Length 157 m; draft 7.9 m.

Type: Ship. MMSI: 538005064.

Date/timePositionNaut miles runAvg speedWind from/ knotsBaromVisibWave heightAir tempDewpointWater temp
2017-Sep-21 14:42N 36°08' W 007°19'2816.8
2017-Sep-21 13:00N 36°15' W 007°53'1617.1
2017-Sep-21 12:03N 36°19' W 008°13'317.4
2017-Sep-21 11:53N 36°20' W 008°16'917.5
2017-Sep-21 11:23N 36°22' W 008°27'5416.9
2017-Sep-21 08:11N 36°42' W 009°29'417.6
2017-Sep-21 07:56N 36°46' W 009°33'717.3
2017-Sep-21 07:30N 36°53' W 009°36'918.0
2017-Sep-21 07:00N 37°01' W 009°38'917.5
2017-Sep-21 06:29N 37°10' W 009°41'817.7
2017-Sep-21 06:01N 37°19' W 009°43'1118.3
2017-Sep-21 05:23N 37°30' W 009°45'2117.4
2017-Sep-21 04:11N 37°50' W 009°51'317.0
2017-Sep-21 03:59N 37°54' W 009°52'817.4
2017-Sep-21 03:30N 38°02' W 009°55'917.5
2017-Sep-21 03:00N 38°10' W 009°57'917.5
2017-Sep-21 02:30N 38°19' W 009°59'918.3
2017-Sep-21 02:00N 38°28' W 010°02'918.3
2017-Sep-21 01:30N 38°36' W 010°04'917.8
2017-Sep-21 01:00N 38°45' W 010°05'917.9
2017-Sep-21 00:30N 38°54' W 010°04'917.4
2017-Sep-21 00:00N 39°03' W 010°00'917.3
2017-Sep-20 23:30N 39°11' W 009°56'917.0
2017-Sep-20 22:57N 39°19' W 009°50'  
2017-Sep-17 23:05N 51°37' W 006°04'214.6
2017-Sep-17 22:55N 51°40' W 006°03'614.4
2017-Sep-17 22:29N 51°46' W 006°00'714.2
2017-Sep-17 22:01N 51°52' W 005°56'714.1
2017-Sep-17 21:30N 51°59' W 005°55'713.9
2017-Sep-17 21:01N 52°06' W 005°55'713.1
2017-Sep-17 20:31N 52°12' W 005°54'612.6
2017-Sep-17 20:01N 52°19' W 005°54'612.1
2017-Sep-17 19:31N 52°25' W 005°54'611.8
2017-Sep-17 19:00N 52°31' W 005°54'611.6
2017-Sep-17 18:31N 52°36' W 005°54'2610.9
2017-Sep-17 16:07N 53°02' W 005°55'311.3
2017-Sep-17 15:52N 53°05' W 005°55'411.9
2017-Sep-17 15:30N 53°09' W 005°57'712.7
2017-Sep-17 15:00N 53°16' W 006°00'611.8
2017-Sep-17 14:30N 53°20' W 006°06'4 6.8
2017-Sep-17 13:56N 53°21' W 006°13'0 0.0
2017-Sep-17 08:14N 53°21' W 006°13'0 0.0
2017-Sep-17 07:50N 53°21' W 006°13'0 0.0
2017-Sep-17 07:05N 53°21' W 006°13'0 0.1
2017-Sep-17 06:48N 53°21' W 006°13'1 2.6
2017-Sep-17 06:29N 53°21' W 006°11'510.1
2017-Sep-17 06:00N 53°21' W 006°03'611.4
2017-Sep-17 05:26N 53°23' W 005°53'6013.5
2017-Sep-17 01:02N 53°33' W 004°14'115.2
2017-Sep-17 00:59N 53°33' W 004°13'715.3
2017-Sep-17 00:30N 53°34' W 004°01'815.3
2017-Sep-17 00:00N 53°34' W 003°48'815.2
2017-Sep-16 23:30N 53°34' W 003°35'815.2
2017-Sep-16 23:00N 53°33' W 003°23'612.8
2017-Sep-16 22:31N 53°31' W 003°12'612.6
2017-Sep-16 22:00N 53°28' W 003°03'1 2.9
2017-Sep-16 21:31N 53°27' W 003°01'1 0.9
2017-Sep-16 20:54N 53°28' W 003°02'0 0.4
2017-Sep-16 20:30N 53°28' W 003°01'0 0.0
2017-Sep-16 20:00N 53°28' W 003°01'0 0.0
2017-Sep-16 19:27N 53°28' W 003°01'0 0.0
2017-Sep-16 19:00N 53°28' W 003°01'0 0.0
2017-Sep-16 18:30N 53°28' W 003°01'0 0.0
2017-Sep-16 18:00N 53°28' W 003°01'0 0.0
2017-Sep-16 17:30N 53°28' W 003°01'0 0.0
2017-Sep-16 16:57N 53°28' W 003°01'0 0.0
2017-Sep-16 16:27N 53°28' W 003°01'0 0.0
2017-Sep-16 15:57N 53°28' W 003°01'0 0.0
2017-Sep-16 15:30N 53°28' W 003°01'0 0.0
2017-Sep-16 14:57N 53°28' W 003°01'0 0.0
2017-Sep-16 14:30N 53°28' W 003°01'0 0.0
2017-Sep-16 14:00N 53°28' W 003°01'0 0.0
2017-Sep-16 13:27N 53°28' W 003°01'0 0.0
2017-Sep-16 13:00N 53°28' W 003°01'0 0.0
2017-Sep-16 12:30N 53°28' W 003°01'0 0.0
2017-Sep-16 12:00N 53°28' W 003°01'0 0.0
2017-Sep-16 11:30N 53°28' W 003°01'0 0.0
2017-Sep-16 11:00N 53°28' W 003°01'0 0.0
2017-Sep-16 10:30N 53°28' W 003°01'0 0.0
2017-Sep-16 10:00N 53°28' W 003°01'0 0.0
2017-Sep-16 09:27N 53°28' W 003°01'0 0.0
2017-Sep-16 09:00N 53°28' W 003°01'0 0.0
2017-Sep-16 08:30N 53°28' W 003°02'0 0.0
2017-Sep-16 08:00N 53°28' W 003°02'0 0.0
2017-Sep-16 07:30N 53°28' W 003°02'0 0.0
2017-Sep-16 06:57N 53°28' W 003°01'0 0.0
2017-Sep-16 06:30N 53°28' W 003°01'0 0.1
2017-Sep-16 06:00N 53°28' W 003°01'1 1.3
2017-Sep-16 05:30N 53°27' W 003°01'0 0.4
2017-Sep-16 05:00N 53°27' W 003°01'0 0.3
2017-Sep-16 04:30N 53°27' W 003°01'1 1.4
2017-Sep-16 04:00N 53°27' W 003°02'4 8.9
2017-Sep-16 03:30N 53°31' W 003°06'612.7
2017-Sep-16 03:00N 53°31' W 003°17'5 9.4
2017-Sep-16 02:30N 53°31' W 003°25'612.4
2017-Sep-16 02:00N 53°31' W 003°36'612.2
2017-Sep-16 01:30N 53°30' W 003°46'612.2
2017-Sep-16 01:01N 53°30' W 003°56'612.3
2017-Sep-16 00:30N 53°30' W 004°06'12512.9
2017-Sep-15 14:48N 51°43' W 005°50'514.2
2017-Sep-15 14:27N 51°38' W 005°53'614.3
2017-Sep-15 14:01N 51°32' W 005°55'  
2017-Sep-12 23:22N 39°51' W 009°34'615.4
2017-Sep-12 22:59N 39°46' W 009°38'715.5
2017-Sep-12 22:30N 39°39' W 009°41'815.4
2017-Sep-12 22:00N 39°32' W 009°44'815.0
2017-Sep-12 21:30N 39°24' W 009°45'714.7
2017-Sep-12 21:00N 39°17' W 009°46'815.0
2017-Sep-12 20:30N 39°09' W 009°48'815.2
2017-Sep-12 20:00N 39°02' W 009°49'815.1
2017-Sep-12 19:30N 38°54' W 009°51'714.8
2017-Sep-12 19:01N 38°47' W 009°51'714.7
2017-Sep-12 18:30N 38°40' W 009°49'714.2
2017-Sep-12 18:00N 38°33' W 009°47'714.0
2017-Sep-12 17:31N 38°26' W 009°45'714.2
2017-Sep-12 17:01N 38°19' W 009°43'714.0
2017-Sep-12 16:31N 38°13' W 009°40'713.9
2017-Sep-12 16:01N 38°06' W 009°38'714.2
2017-Sep-12 15:31N 37°59' W 009°36'714.1
2017-Sep-12 15:00N 37°52' W 009°34'713.8
2017-Sep-12 14:31N 37°45' W 009°32'714.0
2017-Sep-12 14:01N 37°38' W 009°31'713.7
2017-Sep-12 13:31N 37°32' W 009°29'713.9
2017-Sep-12 13:01N 37°25' W 009°27'714.2
2017-Sep-12 12:30N 37°18' W 009°25'714.2
2017-Sep-12 12:00N 37°11' W 009°23'1114.1
2017-Sep-12 11:13N 37°00' W 009°20'314.5
2017-Sep-12 11:00N 36°57' W 009°19'714.4
2017-Sep-12 10:31N 36°51' W 009°15'814.6
2017-Sep-12 10:00N 36°45' W 009°09'715.3
2017-Sep-12 09:30N 36°42' W 009°00'815.8
2017-Sep-12 09:01N 36°40' W 008°51'816.0
2017-Sep-12 08:30N 36°37' W 008°41'816.0
2017-Sep-12 08:00N 36°35' W 008°32'816.2
2017-Sep-12 07:30N 36°32' W 008°22'816.2
2017-Sep-12 07:00N 36°29' W 008°13'815.6
2017-Sep-12 06:30N 36°27' W 008°04'816.1
2017-Sep-12 06:00N 36°25' W 007°54'1016.3
2017-Sep-12 05:22N 36°22' W 007°42'9316.6
2017-Sep-11 23:48N 35°58' W 005°51'815.7
2017-Sep-11 23:16N 35°58' W 005°41'414.4
2017-Sep-11 23:00N 35°58' W 005°36'713.7
2017-Sep-11 22:30N 36°00' W 005°28'713.6
2017-Sep-11 22:01N 36°02' W 005°20'714.8
2017-Sep-11 21:31N 36°04' W 005°11'  
Track history (hours):
 
Tides and Currents Weather Stations Pressure Air Temp Water Temp Dewpoint Dewpoint Depression Visibility Wind Speed Wind Dir Waves Ship Positions

Rachel Borchard

Last reported at 2017-Sep-21 14:42 UTC. Time now 2017-Sep-22 10:16 UTC.
Position N 36°08' W 007°19'.

Length 157 m; draft 7.9 m.

Type: Ship. MMSI: 538005064.

Date/timePositionNaut miles runAvg speedWind from/ knotsBaromVisibWave heightAir tempDewpointWater temp
2017-Sep-21 14:42N 36°08' W 007°19'2816.8
2017-Sep-21 13:00N 36°15' W 007°53'1617.1
2017-Sep-21 12:03N 36°19' W 008°13'317.4
2017-Sep-21 11:53N 36°20' W 008°16'917.5
2017-Sep-21 11:23N 36°22' W 008°27'5416.9
2017-Sep-21 08:11N 36°42' W 009°29'417.6
2017-Sep-21 07:56N 36°46' W 009°33'717.3
2017-Sep-21 07:30N 36°53' W 009°36'918.0
2017-Sep-21 07:00N 37°01' W 009°38'917.5
2017-Sep-21 06:29N 37°10' W 009°41'817.7
2017-Sep-21 06:01N 37°19' W 009°43'1118.3
2017-Sep-21 05:23N 37°30' W 009°45'2117.4
2017-Sep-21 04:11N 37°50' W 009°51'317.0
2017-Sep-21 03:59N 37°54' W 009°52'817.4
2017-Sep-21 03:30N 38°02' W 009°55'917.5
2017-Sep-21 03:00N 38°10' W 009°57'917.5
2017-Sep-21 02:30N 38°19' W 009°59'918.3
2017-Sep-21 02:00N 38°28' W 010°02'918.3
2017-Sep-21 01:30N 38°36' W 010°04'917.8
2017-Sep-21 01:00N 38°45' W 010°05'917.9
2017-Sep-21 00:30N 38°54' W 010°04'917.4
2017-Sep-21 00:00N 39°03' W 010°00'917.3
2017-Sep-20 23:30N 39°11' W 009°56'917.0
2017-Sep-20 22:57N 39°19' W 009°50'  
2017-Sep-17 23:05N 51°37' W 006°04'214.6
2017-Sep-17 22:55N 51°40' W 006°03'614.4
2017-Sep-17 22:29N 51°46' W 006°00'714.2
2017-Sep-17 22:01N 51°52' W 005°56'714.1
2017-Sep-17 21:30N 51°59' W 005°55'713.9
2017-Sep-17 21:01N 52°06' W 005°55'713.1
2017-Sep-17 20:31N 52°12' W 005°54'612.6
2017-Sep-17 20:01N 52°19' W 005°54'612.1
2017-Sep-17 19:31N 52°25' W 005°54'611.8
2017-Sep-17 19:00N 52°31' W 005°54'611.6
2017-Sep-17 18:31N 52°36' W 005°54'2610.9
2017-Sep-17 16:07N 53°02' W 005°55'311.3
2017-Sep-17 15:52N 53°05' W 005°55'411.9
2017-Sep-17 15:30N 53°09' W 005°57'712.7
2017-Sep-17 15:00N 53°16' W 006°00'611.8
2017-Sep-17 14:30N 53°20' W 006°06'4 6.8
2017-Sep-17 13:56N 53°21' W 006°13'0 0.0
2017-Sep-17 08:14N 53°21' W 006°13'0 0.0
2017-Sep-17 07:50N 53°21' W 006°13'0 0.0
2017-Sep-17 07:05N 53°21' W 006°13'0 0.1
2017-Sep-17 06:48N 53°21' W 006°13'1 2.6
2017-Sep-17 06:29N 53°21' W 006°11'510.1
2017-Sep-17 06:00N 53°21' W 006°03'611.4
2017-Sep-17 05:26N 53°23' W 005°53'6013.5
2017-Sep-17 01:02N 53°33' W 004°14'115.2
2017-Sep-17 00:59N 53°33' W 004°13'715.3
2017-Sep-17 00:30N 53°34' W 004°01'815.3
2017-Sep-17 00:00N 53°34' W 003°48'815.2
2017-Sep-16 23:30N 53°34' W 003°35'815.2
2017-Sep-16 23:00N 53°33' W 003°23'612.8
2017-Sep-16 22:31N 53°31' W 003°12'612.6
2017-Sep-16 22:00N 53°28' W 003°03'1 2.9
2017-Sep-16 21:31N 53°27' W 003°01'1 0.9
2017-Sep-16 20:54N 53°28' W 003°02'0 0.4
2017-Sep-16 20:30N 53°28' W 003°01'0 0.0
2017-Sep-16 20:00N 53°28' W 003°01'0 0.0
2017-Sep-16 19:27N 53°28' W 003°01'0 0.0
2017-Sep-16 19:00N 53°28' W 003°01'0 0.0
2017-Sep-16 18:30N 53°28' W 003°01'0 0.0
2017-Sep-16 18:00N 53°28' W 003°01'0 0.0
2017-Sep-16 17:30N 53°28' W 003°01'0 0.0
2017-Sep-16 16:57N 53°28' W 003°01'0 0.0
2017-Sep-16 16:27N 53°28' W 003°01'0 0.0
2017-Sep-16 15:57N 53°28' W 003°01'0 0.0
2017-Sep-16 15:30N 53°28' W 003°01'0 0.0
2017-Sep-16 14:57N 53°28' W 003°01'0 0.0
2017-Sep-16 14:30N 53°28' W 003°01'0 0.0
2017-Sep-16 14:00N 53°28' W 003°01'0 0.0
2017-Sep-16 13:27N 53°28' W 003°01'0 0.0
2017-Sep-16 13:00N 53°28' W 003°01'0 0.0
2017-Sep-16 12:30N 53°28' W 003°01'0 0.0
2017-Sep-16 12:00N 53°28' W 003°01'0 0.0
2017-Sep-16 11:30N 53°28' W 003°01'0 0.0
2017-Sep-16 11:00N 53°28' W 003°01'0 0.0
2017-Sep-16 10:30N 53°28' W 003°01'0 0.0
2017-Sep-16 10:00N 53°28' W 003°01'0 0.0
2017-Sep-16 09:27N 53°28' W 003°01'0 0.0
2017-Sep-16 09:00N 53°28' W 003°01'0 0.0
2017-Sep-16 08:30N 53°28' W 003°02'0 0.0
2017-Sep-16 08:00N 53°28' W 003°02'0 0.0
2017-Sep-16 07:30N 53°28' W 003°02'0 0.0
2017-Sep-16 06:57N 53°28' W 003°01'0 0.0
2017-Sep-16 06:30N 53°28' W 003°01'0 0.1
2017-Sep-16 06:00N 53°28' W 003°01'1 1.3
2017-Sep-16 05:30N 53°27' W 003°01'0 0.4
2017-Sep-16 05:00N 53°27' W 003°01'0 0.3
2017-Sep-16 04:30N 53°27' W 003°01'1 1.4
2017-Sep-16 04:00N 53°27' W 003°02'4 8.9
2017-Sep-16 03:30N 53°31' W 003°06'612.7
2017-Sep-16 03:00N 53°31' W 003°17'5 9.4
2017-Sep-16 02:30N 53°31' W 003°25'612.4
2017-Sep-16 02:00N 53°31' W 003°36'612.2
2017-Sep-16 01:30N 53°30' W 003°46'612.2
2017-Sep-16 01:01N 53°30' W 003°56'612.3
2017-Sep-16 00:30N 53°30' W 004°06'12512.9
2017-Sep-15 14:48N 51°43' W 005°50'514.2
2017-Sep-15 14:27N 51°38' W 005°53'614.3
2017-Sep-15 14:01N 51°32' W 005°55'  
2017-Sep-12 23:22N 39°51' W 009°34'615.4
2017-Sep-12 22:59N 39°46' W 009°38'715.5
2017-Sep-12 22:30N 39°39' W 009°41'815.4
2017-Sep-12 22:00N 39°32' W 009°44'815.0
2017-Sep-12 21:30N 39°24' W 009°45'714.7
2017-Sep-12 21:00N 39°17' W 009°46'815.0
2017-Sep-12 20:30N 39°09' W 009°48'815.2
2017-Sep-12 20:00N 39°02' W 009°49'815.1
2017-Sep-12 19:30N 38°54' W 009°51'714.8
2017-Sep-12 19:01N 38°47' W 009°51'714.7
2017-Sep-12 18:30N 38°40' W 009°49'714.2
2017-Sep-12 18:00N 38°33' W 009°47'714.0
2017-Sep-12 17:31N 38°26' W 009°45'714.2
2017-Sep-12 17:01N 38°19' W 009°43'714.0
2017-Sep-12 16:31N 38°13' W 009°40'713.9
2017-Sep-12 16:01N 38°06' W 009°38'714.2
2017-Sep-12 15:31N 37°59' W 009°36'714.1
2017-Sep-12 15:00N 37°52' W 009°34'713.8
2017-Sep-12 14:31N 37°45' W 009°32'714.0
2017-Sep-12 14:01N 37°38' W 009°31'713.7
2017-Sep-12 13:31N 37°32' W 009°29'713.9
2017-Sep-12 13:01N 37°25' W 009°27'714.2
2017-Sep-12 12:30N 37°18' W 009°25'714.2
2017-Sep-12 12:00N 37°11' W 009°23'1114.1
2017-Sep-12 11:13N 37°00' W 009°20'314.5
2017-Sep-12 11:00N 36°57' W 009°19'714.4
2017-Sep-12 10:31N 36°51' W 009°15'814.6
2017-Sep-12 10:00N 36°45' W 009°09'715.3
2017-Sep-12 09:30N 36°42' W 009°00'815.8
2017-Sep-12 09:01N 36°40' W 008°51'816.0
2017-Sep-12 08:30N 36°37' W 008°41'816.0
2017-Sep-12 08:00N 36°35' W 008°32'816.2
2017-Sep-12 07:30N 36°32' W 008°22'816.2
2017-Sep-12 07:00N 36°29' W 008°13'815.6
2017-Sep-12 06:30N 36°27' W 008°04'816.1
2017-Sep-12 06:00N 36°25' W 007°54'1016.3
2017-Sep-12 05:22N 36°22' W 007°42'9316.6
2017-Sep-11 23:48N 35°58' W 005°51'815.7
2017-Sep-11 23:16N 35°58' W 005°41'414.4
2017-Sep-11 23:00N 35°58' W 005°36'713.7
2017-Sep-11 22:30N 36°00' W 005°28'713.6
2017-Sep-11 22:01N 36°02' W 005°20'714.8
2017-Sep-11 21:31N 36°04' W 005°11'  

Dump ship's entire track history